Dieppe, Canada
Current Conditions -  °F | °C
As of 9:00 PM on Wednesday 22 Oct 2014 (Local Time) from CYQM Reporting Station
Light Rain Light Rain  
Wind Chill: 40°   Ceiling: 5000
Heat Index: 46°   Visibility: 12mi
Dew Point: 43°   Wind: 16mph
Humidity: 87%   Direction: 40°NE
Pressure: 30.31"   Gusts: 24mph
Location:  46.1°N, 64.75°W
Report Text: CYQM 230000Z 04014G21KT 12SM -RA SCT038 BKN050 OVC070 08/06 A3031 RMK SC3SC2AC3 SLP267
Loading
Personal Weather Stations






























Interactive Weather Map
Tropical Storm Tracking
New forecast layout! Learn more

10-Day Weather Forecast

Advertisements
Track Severe Weather on mobile